createdAt,value
2023-05-31T00:00:55.744Z,100.00
2023-05-31T00:03:23.846Z,100.00
2023-05-31T00:05:51.983Z,100.00
2023-05-31T00:08:21.421Z,100.00
2023-05-31T00:10:49.359Z,100.00
2023-05-31T00:13:17.339Z,100.00
2023-05-31T00:15:45.368Z,100.00
2023-05-31T00:18:13.489Z,100.00
2023-05-31T00:20:41.607Z,100.00
2023-05-31T00:23:09.665Z,100.00
2023-05-31T00:25:39.239Z,100.00
2023-05-31T00:28:07.214Z,100.00
2023-05-31T00:30:35.263Z,100.00
2023-05-31T00:33:03.437Z,100.00
2023-05-31T00:35:31.449Z,100.00
2023-05-31T00:37:59.453Z,100.00
2023-05-31T00:40:27.393Z,100.00
2023-05-31T00:42:56.719Z,100.00
2023-05-31T00:45:24.889Z,100.00
2023-05-31T00:47:52.962Z,100.00
2023-05-31T00:50:21.019Z,100.00
2023-05-31T00:52:49.042Z,100.00
2023-05-31T00:55:17.011Z,100.00
2023-05-31T00:57:45.015Z,100.00
2023-05-31T01:00:16.085Z,100.00
2023-05-31T01:02:44.601Z,100.00
2023-05-31T01:05:12.602Z,100.00
2023-05-31T01:07:40.760Z,100.00
2023-05-31T01:10:09.112Z,100.00
2023-05-31T01:12:41.446Z,100.00
2023-05-31T01:15:11.942Z,100.00
2023-05-31T01:17:46.321Z,100.00
2023-05-31T01:20:15.472Z,100.00
2023-05-31T01:22:56.543Z,100.00
2023-05-31T01:25:30.139Z,100.00
2023-05-31T01:27:59.548Z,100.00
2023-05-31T01:30:27.545Z,100.00
2023-05-31T01:32:55.856Z,100.00
2023-05-31T01:35:23.914Z,100.00
2023-05-31T01:37:52.261Z,100.00
2023-05-31T01:40:20.328Z,100.00
2023-05-31T01:42:48.388Z,100.00
2023-05-31T01:45:17.852Z,100.00
2023-05-31T01:47:45.883Z,100.00
2023-05-31T01:50:14.612Z,100.00
2023-05-31T01:52:43.034Z,100.00
2023-05-31T01:55:11.571Z,100.00
2023-05-31T01:57:40.011Z,100.00
2023-05-31T02:00:12.949Z,100.00
2023-05-31T02:02:42.678Z,100.00
2023-05-31T02:05:14.136Z,100.00
2023-05-31T02:07:42.483Z,100.00
2023-05-31T02:10:11.138Z,100.00
2023-05-31T02:12:39.268Z,100.00
2023-05-31T02:15:11.819Z,100.00
2023-05-31T02:17:41.774Z,100.00
2023-05-31T02:20:14.095Z,100.00
2023-05-31T02:22:42.805Z,100.00
2023-05-31T02:25:11.383Z,100.00
2023-05-31T02:27:39.480Z,100.00
2023-05-31T02:30:08.512Z,100.00
2023-05-31T02:32:38.460Z,100.00
2023-05-31T02:35:07.124Z,100.00
2023-05-31T02:37:36.707Z,100.00
2023-05-31T02:40:08.146Z,100.00
2023-05-31T02:42:36.795Z,100.00
2023-05-31T02:45:05.490Z,100.00
2023-05-31T02:47:33.515Z,100.00
2023-05-31T02:50:01.456Z,100.00
2023-05-31T02:52:29.458Z,100.00
2023-05-31T02:54:58.900Z,100.00
2023-05-31T02:57:26.874Z,100.00
2023-05-31T02:59:57.358Z,100.00
2023-05-31T03:02:25.403Z,100.00
2023-05-31T03:04:53.875Z,100.00
2023-05-31T03:07:21.934Z,100.00
2023-05-31T03:09:49.934Z,100.00
2023-05-31T03:12:19.322Z,100.00
2023-05-31T03:14:47.341Z,100.00
2023-05-31T03:17:16.266Z,100.00
2023-05-31T03:19:44.337Z,100.00
2023-05-31T03:22:12.365Z,100.00
2023-05-31T03:24:41.421Z,100.00
2023-05-31T03:27:09.457Z,100.00
2023-05-31T03:29:41.089Z,100.00
2023-05-31T03:32:09.257Z,100.00
2023-05-31T03:34:37.328Z,100.00
2023-05-31T03:37:05.769Z,100.00
2023-05-31T03:39:33.967Z,100.00
2023-05-31T03:42:02.751Z,100.00
2023-05-31T03:44:30.808Z,100.00
2023-05-31T03:47:00.279Z,100.00
2023-05-31T03:49:28.318Z,100.00
2023-05-31T03:51:56.314Z,100.00
2023-05-31T03:54:24.330Z,100.00
2023-05-31T03:56:52.357Z,100.00
2023-05-31T03:59:21.030Z,100.00
2023-05-31T04:01:49.069Z,100.00
2023-05-31T04:04:18.572Z,100.00
2023-05-31T04:06:46.742Z,100.00
2023-05-31T04:09:14.757Z,100.00
2023-05-31T04:11:42.765Z,100.00
2023-05-31T04:14:10.775Z,100.00
2023-05-31T04:16:38.842Z,97.55
2023-05-31T04:19:06.836Z,81.48
2023-05-31T04:21:36.336Z,69.67
2023-05-31T04:24:04.341Z,63.58
2023-05-31T04:26:33.311Z,57.41
2023-05-31T04:29:01.439Z,53.91
2023-05-31T04:31:42.498Z,51.61
2023-05-31T04:34:20.487Z,46.82
2023-05-31T04:36:51.161Z,49.97
2023-05-31T04:39:21.274Z,49.68
2023-05-31T04:41:49.505Z,48.52
2023-05-31T04:44:17.489Z,47.80
2023-05-31T04:46:45.459Z,47.25
2023-05-31T04:49:14.054Z,47.07
2023-05-31T04:51:42.160Z,47.17
2023-05-31T04:54:11.727Z,45.04
2023-05-31T04:56:39.711Z,45.72
2023-05-31T04:59:08.850Z,45.19
2023-05-31T05:01:36.944Z,44.88
2023-05-31T05:04:05.585Z,44.39
2023-05-31T05:06:33.899Z,43.49
2023-05-31T05:09:01.874Z,41.52
2023-05-31T05:11:31.199Z,42.06
2023-05-31T05:13:59.364Z,42.19
2023-05-31T05:16:27.414Z,42.63
2023-05-31T05:18:55.707Z,45.36
2023-05-31T05:21:24.205Z,44.41
2023-05-31T05:23:52.803Z,46.17
2023-05-31T05:26:20.969Z,44.96
2023-05-31T05:28:50.338Z,42.38
2023-05-31T05:31:18.349Z,41.18
2023-05-31T05:33:46.322Z,40.67
2023-05-31T05:36:14.320Z,40.24
2023-05-31T05:38:42.550Z,40.72
2023-05-31T05:41:13.447Z,39.00
2023-05-31T05:43:41.652Z,39.67
2023-05-31T05:46:10.992Z,40.58
2023-05-31T05:48:39.032Z,40.29
2023-05-31T05:51:07.108Z,39.79
2023-05-31T05:53:35.076Z,38.50
2023-05-31T05:56:03.025Z,38.55
2023-05-31T05:58:31.482Z,37.00
2023-05-31T06:00:59.637Z,35.02
2023-05-31T06:03:29.225Z,35.31
2023-05-31T06:05:57.359Z,33.93
2023-05-31T06:08:25.475Z,35.51
2023-05-31T06:10:53.532Z,36.58
2023-05-31T06:13:21.519Z,34.86
2023-05-31T06:15:49.512Z,35.07
2023-05-31T06:18:17.479Z,34.47
2023-05-31T06:20:46.932Z,33.44
2023-05-31T06:23:14.998Z,35.13
2023-05-31T06:25:43.030Z,34.58
2023-05-31T06:28:11.322Z,34.09
2023-05-31T06:30:39.322Z,33.61
2023-05-31T06:33:07.533Z,33.26
2023-05-31T06:35:35.611Z,32.41
2023-05-31T06:38:05.201Z,34.71
2023-05-31T06:40:33.194Z,33.09
2023-05-31T06:43:01.219Z,32.76
2023-05-31T06:45:29.171Z,33.64
2023-05-31T06:47:58.795Z,33.96
2023-05-31T06:50:28.898Z,34.91
2023-05-31T06:52:57.167Z,35.49
2023-05-31T06:55:26.502Z,35.00
2023-05-31T06:57:54.541Z,35.66
2023-05-31T07:00:22.588Z,38.88
2023-05-31T07:02:50.806Z,38.80
2023-05-31T07:05:18.798Z,37.34
2023-05-31T07:07:46.776Z,36.33
2023-05-31T07:10:14.815Z,35.54
2023-05-31T07:12:44.137Z,35.57
2023-05-31T07:15:12.826Z,35.77
2023-05-31T07:17:41.075Z,34.51
2023-05-31T07:20:10.507Z,35.04
2023-05-31T07:22:38.574Z,35.85
2023-05-31T07:25:07.477Z,35.27
2023-05-31T07:27:35.501Z,35.98
2023-05-31T07:30:05.164Z,36.29
2023-05-31T07:32:33.324Z,37.79
2023-05-31T07:35:03.871Z,39.04
2023-05-31T07:37:32.634Z,37.99
2023-05-31T07:40:00.690Z,39.47
2023-05-31T07:42:29.923Z,40.72
2023-05-31T07:44:58.022Z,40.43
2023-05-31T07:47:27.431Z,39.23
2023-05-31T07:49:55.507Z,43.66
2023-05-31T07:52:24.100Z,43.81
2023-05-31T07:54:52.096Z,45.32
2023-05-31T07:57:20.077Z,45.58
2023-05-31T07:59:48.390Z,46.44
2023-05-31T08:02:16.618Z,48.96
2023-05-31T08:04:46.279Z,47.98
2023-05-31T08:07:14.289Z,49.02
2023-05-31T08:09:42.828Z,48.55
2023-05-31T08:12:11.378Z,50.42
2023-05-31T08:14:39.370Z,45.60
2023-05-31T08:17:07.403Z,48.36
2023-05-31T08:19:35.851Z,48.42
2023-05-31T08:22:05.896Z,49.45
2023-05-31T08:24:33.917Z,45.59
2023-05-31T08:27:02.791Z,48.59
2023-05-31T08:29:31.568Z,47.29
2023-05-31T08:31:59.553Z,46.30
2023-05-31T08:34:28.351Z,47.65
2023-05-31T08:36:56.374Z,47.14
2023-05-31T08:39:26.016Z,52.68
2023-05-31T08:41:55.859Z,52.31
2023-05-31T08:44:23.821Z,49.22
2023-05-31T08:46:51.906Z,49.41
2023-05-31T08:49:20.009Z,49.56
2023-05-31T08:51:48.029Z,48.38
2023-05-31T08:54:16.025Z,47.81
2023-05-31T08:56:46.513Z,48.52
2023-05-31T08:59:14.623Z,48.90
2023-05-31T09:01:42.682Z,52.98
2023-05-31T09:04:10.713Z,46.14
2023-05-31T09:06:39.044Z,47.22
2023-05-31T09:09:10.082Z,46.30
2023-05-31T09:11:38.888Z,46.70
2023-05-31T09:14:09.681Z,48.75
2023-05-31T09:16:37.861Z,51.78
2023-05-31T09:19:06.596Z,48.04
2023-05-31T09:21:40.217Z,47.82
2023-05-31T09:24:08.404Z,45.97
2023-05-31T09:26:36.487Z,44.72
2023-05-31T09:29:04.914Z,47.38
2023-05-31T09:31:34.301Z,42.70
2023-05-31T09:34:02.330Z,43.12
2023-05-31T09:36:31.257Z,42.95
2023-05-31T09:39:06.373Z,41.43
2023-05-31T09:41:34.540Z,38.07
2023-05-31T09:44:02.554Z,35.73
2023-05-31T09:46:30.624Z,35.40
2023-05-31T09:49:04.330Z,35.81
2023-05-31T09:51:33.579Z,37.22
2023-05-31T09:54:02.977Z,35.29
2023-05-31T09:56:30.956Z,35.25
2023-05-31T09:58:59.170Z,35.21
2023-05-31T10:01:27.621Z,36.64
2023-05-31T10:03:55.616Z,34.85
2023-05-31T10:06:25.016Z,34.07
2023-05-31T10:08:53.056Z,32.87
2023-05-31T10:11:24.004Z,34.89
2023-05-31T10:13:52.577Z,31.49
2023-05-31T10:16:20.822Z,32.03
2023-05-31T10:18:49.005Z,33.09
2023-05-31T10:21:23.563Z,33.58
2023-05-31T10:23:58.956Z,33.82
2023-05-31T10:26:29.581Z,33.69
2023-05-31T10:28:58.554Z,35.56
2023-05-31T10:31:30.326Z,35.41
2023-05-31T10:34:02.225Z,34.71
2023-05-31T10:36:30.323Z,34.03
2023-05-31T10:39:01.104Z,36.47
2023-05-31T10:41:31.748Z,34.59
2023-05-31T10:44:01.309Z,33.77
2023-05-31T10:46:29.365Z,34.23
2023-05-31T10:48:58.157Z,34.55
2023-05-31T10:51:45.499Z,33.46
2023-05-31T10:54:20.137Z,34.39
2023-05-31T10:56:54.326Z,34.07
2023-05-31T10:59:22.348Z,35.63
2023-05-31T11:01:50.374Z,32.04
2023-05-31T11:04:22.056Z,32.47
2023-05-31T11:06:50.206Z,32.38
2023-05-31T11:09:19.733Z,30.54
2023-05-31T11:11:48.841Z,30.66
2023-05-31T11:14:29.399Z,30.76
2023-05-31T11:17:16.409Z,29.80
2023-05-31T11:19:44.783Z,30.17
2023-05-31T11:22:14.732Z,30.09
2023-05-31T11:24:51.484Z,29.00
2023-05-31T11:27:20.054Z,29.32
2023-05-31T11:30:09.779Z,28.56
2023-05-31T11:32:59.860Z,27.53
2023-05-31T11:35:27.916Z,26.49
2023-05-31T11:38:02.194Z,26.79
2023-05-31T11:40:32.926Z,29.01
2023-05-31T11:43:12.768Z,29.26
2023-05-31T11:45:43.041Z,28.64
2023-05-31T11:48:18.517Z,28.61
2023-05-31T11:50:46.562Z,29.03
2023-05-31T11:53:14.535Z,28.77
2023-05-31T11:55:49.858Z,28.50
2023-05-31T11:58:18.161Z,28.14
2023-05-31T12:00:47.842Z,28.26
2023-05-31T12:03:20.975Z,27.32
2023-05-31T12:05:52.821Z,29.17
2023-05-31T12:08:20.846Z,27.18
2023-05-31T12:10:50.203Z,27.75
2023-05-31T12:13:18.593Z,25.55
2023-05-31T12:15:54.721Z,27.71
2023-05-31T12:18:23.456Z,28.20
2023-05-31T12:20:52.009Z,28.93
2023-05-31T12:23:21.128Z,30.49
2023-05-31T12:25:51.121Z,30.52
2023-05-31T12:28:19.596Z,29.52
2023-05-31T12:30:48.487Z,30.33
2023-05-31T12:33:16.987Z,29.10
2023-05-31T12:35:45.655Z,28.92
2023-05-31T12:38:13.643Z,28.18
2023-05-31T12:40:42.955Z,29.06
2023-05-31T12:43:13.945Z,28.37
2023-05-31T12:45:43.099Z,27.60
2023-05-31T12:48:12.601Z,29.19
2023-05-31T12:50:47.222Z,29.66
2023-05-31T12:53:15.956Z,30.74
2023-05-31T12:55:44.143Z,29.83
2023-05-31T12:58:13.522Z,28.95
2023-05-31T13:00:41.727Z,27.64
2023-05-31T13:03:15.324Z,27.08
2023-05-31T13:05:44.032Z,27.42
2023-05-31T13:08:12.068Z,26.58
2023-05-31T13:10:40.033Z,27.90
2023-05-31T13:13:08.005Z,27.63
2023-05-31T13:15:38.459Z,26.73
2023-05-31T13:18:06.659Z,27.24
2023-05-31T13:20:34.792Z,27.01
2023-05-31T13:23:02.834Z,26.58
2023-05-31T13:25:30.815Z,27.62
2023-05-31T13:27:59.055Z,28.78
2023-05-31T13:30:27.061Z,28.48
2023-05-31T13:32:56.530Z,28.55
2023-05-31T13:35:24.611Z,31.55
2023-05-31T13:37:52.655Z,32.32
2023-05-31T13:40:20.776Z,32.56
2023-05-31T13:42:48.747Z,32.65
2023-05-31T13:45:19.485Z,32.37
2023-05-31T13:47:47.595Z,33.39
2023-05-31T13:50:16.998Z,35.14
2023-05-31T13:52:44.973Z,35.69
2023-05-31T13:55:12.985Z,35.38
2023-05-31T13:57:40.996Z,36.53
2023-05-31T14:00:12.092Z,37.36
2023-05-31T14:02:41.935Z,38.42
2023-05-31T14:05:10.409Z,38.89
2023-05-31T14:07:39.999Z,39.33
2023-05-31T14:10:09.141Z,39.16
2023-05-31T14:12:37.104Z,39.53
2023-05-31T14:15:05.619Z,41.57
2023-05-31T14:17:33.661Z,41.70
2023-05-31T14:20:01.696Z,41.58
2023-05-31T14:22:29.692Z,42.01
2023-05-31T14:24:59.081Z,43.68
2023-05-31T14:27:27.083Z,41.35
2023-05-31T14:29:55.011Z,40.52
2023-05-31T14:32:23.039Z,41.25
2023-05-31T14:34:51.555Z,40.54
2023-05-31T14:37:21.176Z,40.56
2023-05-31T14:39:54.159Z,42.21
2023-05-31T14:42:24.131Z,42.13
2023-05-31T14:44:52.104Z,43.75
2023-05-31T14:47:20.110Z,42.76
2023-05-31T14:49:48.064Z,41.59
2023-05-31T14:52:16.017Z,42.42
2023-05-31T14:54:43.995Z,40.61
2023-05-31T14:57:12.032Z,42.40
2023-05-31T14:59:41.336Z,41.77
2023-05-31T15:02:10.351Z,41.77
2023-05-31T15:04:38.334Z,41.33
2023-05-31T15:07:07.027Z,42.58
2023-05-31T15:09:35.048Z,42.60
2023-05-31T15:12:03.244Z,42.43
2023-05-31T15:14:31.209Z,41.66
2023-05-31T15:17:00.561Z,41.70
2023-05-31T15:19:29.595Z,41.60
2023-05-31T15:21:57.585Z,43.28
2023-05-31T15:24:25.621Z,43.72
2023-05-31T15:26:54.129Z,43.54
2023-05-31T15:29:22.209Z,43.60
2023-05-31T15:31:51.662Z,43.04
2023-05-31T15:34:21.203Z,42.60
2023-05-31T15:36:49.160Z,44.15
2023-05-31T15:39:18.355Z,45.05
2023-05-31T15:41:46.298Z,46.34
2023-05-31T15:44:14.713Z,46.10
2023-05-31T15:46:45.790Z,46.09
2023-05-31T15:49:13.911Z,47.43
2023-05-31T15:51:43.257Z,48.33
2023-05-31T15:54:11.315Z,50.08
2023-05-31T15:56:39.343Z,49.77
2023-05-31T15:59:07.328Z,50.29
2023-05-31T16:01:35.530Z,51.74
2023-05-31T16:04:03.666Z,52.42
2023-05-31T16:06:32.844Z,52.17
2023-05-31T17:14:26.781Z,84.67
2023-05-31T17:16:54.859Z,86.52
2023-05-31T17:19:22.960Z,87.88
2023-05-31T17:21:51.043Z,87.80
2023-05-31T17:24:19.216Z,92.70
2023-05-31T17:26:48.673Z,99.04
2023-05-31T17:29:19.222Z,100.00
2023-05-31T17:31:48.721Z,100.00
2023-05-31T17:34:16.691Z,100.00
2023-05-31T17:36:46.876Z,100.00
2023-05-31T17:39:14.857Z,100.00
2023-05-31T17:41:42.803Z,100.00
2023-05-31T17:44:10.817Z,100.00
2023-05-31T17:46:38.811Z,100.00
2023-05-31T17:49:08.247Z,100.00
2023-05-31T17:51:37.690Z,100.00
2023-05-31T17:54:06.100Z,100.00
2023-05-31T17:56:34.106Z,100.00
2023-05-31T17:59:02.152Z,100.00
2023-05-31T18:01:30.996Z,100.00
2023-05-31T18:03:59.072Z,100.00
2023-05-31T18:06:28.454Z,100.00
2023-05-31T18:08:56.382Z,100.00
2023-05-31T18:11:24.612Z,100.00
2023-05-31T18:13:52.623Z,100.00
2023-05-31T18:16:20.773Z,100.00
2023-05-31T18:18:48.741Z,100.00
2023-05-31T18:21:16.886Z,100.00
2023-05-31T18:23:46.255Z,100.00
2023-05-31T18:26:14.744Z,100.00
2023-05-31T18:28:43.054Z,100.00
2023-05-31T18:31:11.818Z,100.00
2023-05-31T18:33:39.938Z,100.00
2023-05-31T18:36:08.145Z,100.00
2023-05-31T18:38:46.611Z,100.00
2023-05-31T18:41:15.052Z,100.00
2023-05-31T18:43:43.126Z,100.00
2023-05-31T18:46:11.057Z,100.00
2023-05-31T18:48:39.488Z,100.00
2023-05-31T18:51:07.746Z,100.00
2023-05-31T18:53:35.771Z,100.00
2023-05-31T18:56:05.188Z,100.00
2023-05-31T19:12:40.369Z,100.00
2023-05-31T19:15:09.462Z,100.00
2023-05-31T19:17:37.430Z,100.00
2023-05-31T19:20:06.277Z,100.00
2023-05-31T19:22:48.384Z,100.00
2023-05-31T19:25:16.600Z,100.00
2023-05-31T19:27:46.633Z,100.00
2023-05-31T19:30:15.269Z,100.00
2023-05-31T19:32:45.284Z,100.00
2023-05-31T19:35:13.411Z,100.00
2023-05-31T19:37:42.471Z,100.00
2023-05-31T19:40:11.791Z,100.00
2023-05-31T19:42:39.860Z,100.00
2023-05-31T19:45:10.678Z,100.00
2023-05-31T19:47:38.618Z,100.00
2023-05-31T19:50:07.629Z,100.00
2023-05-31T19:52:35.578Z,100.00
2023-05-31T19:55:06.054Z,100.00
2023-05-31T19:57:34.512Z,100.00
2023-05-31T20:00:04.342Z,100.00
2023-05-31T20:02:33.891Z,100.00
2023-05-31T20:05:01.961Z,100.00
2023-05-31T20:07:30.048Z,100.00
2023-05-31T20:09:58.043Z,100.00
2023-05-31T20:12:26.060Z,100.00
2023-05-31T20:14:54.048Z,100.00
2023-05-31T20:17:22.084Z,100.00
2023-05-31T20:19:51.446Z,100.00
2023-05-31T20:22:19.485Z,100.00
2023-05-31T20:24:48.063Z,100.00
2023-05-31T20:27:16.008Z,100.00
2023-05-31T20:29:44.270Z,100.00
2023-05-31T20:32:12.485Z,100.00
2023-05-31T20:34:40.495Z,100.00
2023-05-31T20:37:10.037Z,100.00
2023-05-31T20:39:38.095Z,100.00
2023-05-31T20:42:06.922Z,100.00
2023-05-31T20:44:35.183Z,100.00
2023-05-31T20:47:03.160Z,100.00
2023-05-31T20:49:31.256Z,100.00
2023-05-31T20:52:05.099Z,100.00
2023-05-31T20:54:34.485Z,100.00
2023-05-31T20:57:03.964Z,100.00
2023-05-31T20:59:33.090Z,100.00
2023-05-31T21:02:01.182Z,100.00
2023-05-31T21:04:29.297Z,100.00
2023-05-31T21:06:57.260Z,100.00
2023-05-31T21:09:25.259Z,100.00
2023-05-31T21:11:54.600Z,100.00
2023-05-31T21:14:22.567Z,100.00
2023-05-31T21:16:53.889Z,100.00
2023-05-31T21:19:21.837Z,100.00
2023-05-31T21:21:49.821Z,100.00
2023-05-31T21:24:17.852Z,100.00
2023-05-31T21:26:45.809Z,100.00
2023-05-31T21:29:15.946Z,100.00
2023-05-31T21:31:45.089Z,100.00
2023-05-31T21:34:13.127Z,100.00
2023-05-31T21:36:41.118Z,100.00
2023-05-31T21:39:09.123Z,100.00
2023-05-31T21:41:37.068Z,100.00
2023-05-31T21:44:05.345Z,100.00
2023-05-31T21:46:34.741Z,100.00
2023-05-31T21:49:02.756Z,100.00
2023-05-31T21:51:31.037Z,100.00
2023-05-31T21:53:58.981Z,100.00
2023-05-31T21:56:27.085Z,100.00
2023-05-31T21:58:55.657Z,100.00
2023-05-31T22:01:23.966Z,100.00
2023-05-31T22:03:53.405Z,100.00
2023-05-31T22:06:21.429Z,100.00
2023-05-31T22:08:49.758Z,100.00
2023-05-31T22:11:17.777Z,100.00
2023-05-31T22:13:46.469Z,100.00
2023-05-31T22:16:17.694Z,100.00
2023-05-31T22:18:46.932Z,100.00
2023-05-31T22:21:21.592Z,100.00
2023-05-31T22:23:49.771Z,100.00
2023-05-31T22:26:20.410Z,100.00
2023-05-31T22:28:48.630Z,100.00
2023-05-31T22:31:17.111Z,100.00
2023-05-31T22:33:45.185Z,100.00
2023-05-31T22:36:13.128Z,100.00
2023-05-31T22:38:42.477Z,100.00
2023-05-31T22:41:10.482Z,100.00
2023-05-31T22:43:38.503Z,100.00
2023-05-31T22:46:06.571Z,100.00
2023-05-31T22:48:37.488Z,100.00
2023-05-31T22:51:06.107Z,100.00
2023-05-31T22:53:34.221Z,100.00
2023-05-31T22:56:03.625Z,100.00
2023-05-31T22:58:31.620Z,100.00
2023-05-31T23:00:59.785Z,100.00
2023-05-31T23:03:28.028Z,100.00
2023-05-31T23:05:58.052Z,100.00
2023-05-31T23:08:26.224Z,100.00
2023-05-31T23:10:58.615Z,100.00
2023-05-31T23:13:28.293Z,100.00
2023-05-31T23:15:59.867Z,100.00
2023-05-31T23:18:28.181Z,100.00
2023-05-31T23:20:57.338Z,100.00
2023-05-31T23:23:25.307Z,100.00
2023-05-31T23:25:53.258Z,100.00
2023-05-31T23:28:21.407Z,100.00
2023-05-31T23:30:50.819Z,100.00
2023-05-31T23:33:18.768Z,100.00
2023-05-31T23:35:46.840Z,100.00
2023-05-31T23:38:14.884Z,100.00
2023-05-31T23:40:42.821Z,100.00
2023-05-31T23:43:10.760Z,100.00
2023-05-31T23:45:39.261Z,100.00
2023-05-31T23:48:08.811Z,100.00
2023-05-31T23:50:36.813Z,100.00
2023-05-31T23:53:04.787Z,100.00
2023-05-31T23:55:32.908Z,100.00
2023-05-31T23:58:00.858Z,100.00
